KFST/FST METAR and TAF weather

Enter ICAO airport designator
Station Type Date Time Source
KFST METAR 2020/01/27 10:53 UTC NOAA

KFST 271053Z AUTO 22013KT 10SM CLR 11/00 A2997 RMK AO2 SLP115 T01060000


Station Type Date Time Source
KFST Decoded METAR 2020/01/27 10:53 UTC NOAA

FORT STOCKTON PECOS CO AIRPORT , TX, United States (KFST) 30-55N 102-55W 918M
Jan 27, 2020 - 05:53 AM EST / 2020.01.27 1053 UTC
Wind: from the SW (220 degrees) at 15 MPH (13 KT):0
Visibility: 10 mile(s):0
Sky conditions: clear
Temperature: 51.1 F (10.6 C)
Dew Point: 32.0 F (0.0 C)
Relative Humidity: 47%
Pressure (altimeter): 29.97 in. Hg (1014 hPa)
ob: KFST 271053Z AUTO 22013KT 10SM CLR 11/00 A2997 RMK AO2 SLP115 T01060000
cycle: 11

Station Type Date Time Source
KFST TAF 2020/01/27 06:45 UTC NOAA

TAF KFST 270543Z 2706/2806 VRB05KT P6SM FEW250
FM271800 26016KT P6SM SKC

Example: see airport list